Time;durP1;ratioP1;P1;durP2;ratioP2;P2;SDS_P1;SDS_P2;PMS_P1;PMS_P2;Temp;Humidity;BMP_temperature;BMP_pressure;BME280_temperature;BME280_humidity;BME280_pressure;Samples;Min_cycle;Max_cycle;Signal;HPM_P1;HPM_P2
2023/11/02 00:02:51;;;;;;;1.20;1.10;;;;;;;3.93;100.00;96393.38;6225792;28;20240;-89
2023/11/02 00:05:54;;;;;;;2.10;1.00;;;;;;;5.48;100.00;96632.63;6227678;28;20200;-89
2023/11/02 00:09:05;;;;;;;2.03;1.20;;;;;;;4.37;100.00;96452.56;6244707;28;20210;-89
2023/11/02 00:12:14;;;;;;;1.23;1.00;;;;;;;5.01;100.00;96579.94;6243604;28;20579;-89
2023/11/02 00:15:17;;;;;;;0.80;0.80;;;;;;;3.61;100.00;96367.41;6247965;28;20188;-89
2023/11/02 00:18:19;;;;;;;0.97;0.93;;;;;;;4.99;100.00;96583.88;6231039;28;20246;-89
2023/11/02 00:21:28;;;;;;;2.30;1.17;;;;;;;3.00;100.00;96272.06;6217309;28;20581;-89
2023/11/02 00:24:30;;;;;;;1.10;0.80;;;;;;;4.22;100.00;96452.22;6231142;28;20231;-89
2023/11/02 00:27:33;;;;;;;1.63;1.10;;;;;;;4.04;100.00;96443.44;6247819;28;20675;-90
2023/11/02 00:30:42;;;;;;;1.50;1.40;;;;;;;5.17;100.00;96629.41;6257985;28;20200;-90
2023/11/02 00:33:46;;;;;;;2.70;1.00;;;;;;;4.00;100.00;96494.19;6277836;28;20254;-90
2023/11/02 00:36:48;;;;;;;2.03;1.43;;;;;;;3.74;100.00;96434.84;6278430;28;20668;-90
2023/11/02 00:39:50;;;;;;;2.27;1.63;;;;;;;4.15;100.00;96484.00;6276924;28;20214;-90
2023/11/02 00:42:53;;;;;;;5.13;1.90;;;;;;;4.11;100.00;96501.28;6257053;28;20720;-90
2023/11/02 00:45:55;;;;;;;3.27;1.60;;;;;;;4.83;100.00;96604.66;6257476;28;20444;-90
2023/11/02 00:48:58;;;;;;;1.30;1.20;;;;;;;4.44;100.00;96560.56;6277316;28;20179;-90
2023/11/02 00:52:03;;;;;;;1.53;1.10;;;;;;;4.90;100.00;96612.44;6265820;28;20199;-89
2023/11/02 00:55:34;;;;;;;1.60;1.40;;;;;;;4.89;100.00;96601.09;6238926;28;20372;-90
2023/11/02 00:58:44;;;;;;;2.83;1.40;;;;;;;4.04;100.00;96461.88;6223804;28;20674;-88
2023/11/02 01:01:46;;;;;;;1.20;1.10;;;;;;;4.25;100.00;96517.69;6244433;28;20207;-88
2023/11/02 01:04:54;;;;;;;2.07;1.07;;;;;;;4.73;100.00;96579.88;6228335;28;20206;-89
2023/11/02 01:07:56;;;;;;;1.23;0.97;;;;;;;4.24;100.00;96508.97;6245170;28;20213;-89
2023/11/02 01:10:58;;;;;;;1.20;1.10;;;;;;;4.46;100.00;96569.81;6245556;28;20235;-89
2023/11/02 01:14:31;;;;;;;1.30;1.20;;;;;;;3.90;100.00;96483.44;6229380;28;20193;-89
2023/11/02 01:17:38;;;;;;;3.50;1.10;;;;;;;3.31;100.00;96399.13;6218775;28;20232;-89
2023/11/02 01:20:45;;;;;;;2.97;1.00;;;;;;;4.51;100.00;96571.78;6259268;28;20271;-88
2023/11/02 01:24:01;;;;;;;5.57;1.10;;;;;;;3.90;100.00;96492.13;6241720;28;20580;-89
2023/11/02 01:27:04;;;;;;;1.87;1.00;;;;;;;3.51;100.00;96448.81;6245520;28;20335;-88
2023/11/02 01:30:11;;;;;;;1.33;0.93;;;;;;;4.43;100.00;96578.19;6244222;28;20189;-89
2023/11/02 01:33:34;;;;;;;2.27;1.07;;;;;;;4.49;100.00;96587.03;6258362;28;20639;-89
2023/11/02 01:36:39;;;;;;;0.80;0.80;;;;;;;3.93;100.00;96504.81;6235208;28;20280;-89
2023/11/02 01:39:44;;;;;;;1.30;0.90;;;;;;;4.38;100.00;96592.06;6244749;28;20741;-89
2023/11/02 01:42:47;;;;;;;2.00;1.00;;;;;;;3.01;100.00;96378.13;6243185;28;20213;-89
2023/11/02 01:45:55;;;;;;;1.33;0.80;;;;;;;3.99;100.00;96550.53;6245108;28;20202;-89
2023/11/02 01:49:15;;;;;;;1.10;1.00;;;;;;;3.91;100.00;96554.31;6236581;28;20777;-88
2023/11/02 01:52:43;;;;;;;1.00;0.90;;;;;;;3.35;100.00;96489.75;6240848;28;20215;-89
2023/11/02 01:56:18;;;;;;;1.17;1.00;;;;;;;4.05;100.00;96579.44;6238527;28;20191;-88
2023/11/02 01:59:23;;;;;;;2.73;1.50;;;;;;;4.01;100.00;96583.56;6228659;28;20240;-90
2023/11/02 02:02:58;;;;;;;1.33;1.23;;;;;;;3.73;100.00;96534.13;6232945;28;20567;-89
2023/11/02 02:06:23;;;;;;;2.37;1.03;;;;;;;3.54;100.00;96508.91;6176820;28;20231;-90
2023/11/02 02:10:00;;;;;;;4.00;1.30;;;;;;;2.70;100.00;96355.50;6228442;28;20665;-88
2023/11/02 02:13:29;;;;;;;3.77;1.33;;;;;;;3.35;100.00;96455.53;6224740;28;20276;-87
2023/11/02 02:17:18;;;;;;;3.30;1.20;;;;;;;3.32;100.00;96453.34;6244214;28;20210;-87
2023/11/02 02:20:30;;;;;;;3.23;1.23;;;;;;;3.29;100.00;96441.44;6158434;28;20756;-87
2023/11/02 02:23:52;;;;;;;2.80;1.20;;;;;;;3.97;100.00;96526.25;6175613;28;20626;-87
2023/11/02 02:26:57;;;;;;;1.10;0.90;;;;;;;3.97;100.00;96529.69;6158563;28;20356;-88
2023/11/02 02:30:36;;;;;;;2.77;1.10;;;;;;;3.99;100.00;96532.94;6162090;28;20681;-88
2023/11/02 02:33:51;;;;;;;1.03;0.90;;;;;;;4.03;100.00;96528.78;6157632;28;20195;-87
2023/11/02 02:37:10;;;;;;;1.20;1.10;;;;;;;3.36;100.00;96418.47;6168263;28;20784;-88
2023/11/02 02:40:17;;;;;;;1.50;0.90;;;;;;;3.59;100.00;96440.56;6160802;28;20243;-88
2023/11/02 02:43:21;;;;;;;1.13;0.93;;;;;;;3.58;100.00;96449.50;6168056;28;20215;-89
2023/11/02 02:46:25;;;;;;;0.97;0.97;;;;;;;3.97;100.00;96492.00;6181125;28;20280;-89
2023/11/02 02:49:34;;;;;;;3.37;1.23;;;;;;;3.85;100.00;96486.75;6172428;28;20209;-88
2023/11/02 02:52:39;;;;;;;2.93;1.00;;;;;;;3.26;100.00;96420.03;6226498;28;20220;-88
2023/11/02 02:55:47;;;;;;;1.87;0.93;;;;;;;3.67;100.00;96487.63;6225837;28;20206;-88
2023/11/02 02:58:52;;;;;;;1.50;0.80;;;;;;;3.65;100.00;96486.28;6226166;28;20299;-88
2023/11/02 03:01:56;;;;;;;1.20;0.80;;;;;;;3.65;100.00;96488.91;6242955;28;20674;-88
2023/11/02 03:04:59;;;;;;;0.77;0.70;;;;;;;2.85;100.00;96364.56;6242729;28;20204;-89
2023/11/02 03:08:04;;;;;;;1.17;0.70;;;;;;;3.12;100.00;96414.19;6226583;28;20303;-89
2023/11/02 03:11:09;;;;;;;1.37;1.10;;;;;;;2.91;100.00;96393.66;6245921;28;20217;-87
2023/11/02 03:14:24;;;;;;;2.40;1.17;;;;;;;2.64;100.00;96356.41;6242860;28;20208;-88
2023/11/02 03:17:26;;;;;;;1.07;0.93;;;;;;;3.48;100.00;96483.47;6244404;28;20205;-88
2023/11/02 03:20:29;;;;;;;2.50;0.90;;;;;;;2.89;100.00;96398.31;6227728;28;20200;-89
2023/11/02 03:23:53;;;;;;;1.00;0.90;;;;;;;3.56;100.00;96485.78;6237377;28;20213;-89
2023/11/02 03:27:00;;;;;;;2.70;1.10;;;;;;;3.54;100.00;96485.19;6259442;28;20247;-91
2023/11/02 03:30:09;;;;;;;3.50;1.10;;;;;;;2.06;100.00;96266.63;6259574;28;20228;-91
2023/11/02 03:33:23;;;;;;;2.37;1.27;;;;;;;1.24;100.00;96129.78;6275304;28;20215;-92
2023/11/02 03:36:50;;;;;;;1.23;1.00;;;;;;;2.17;100.00;96293.16;6269173;28;20188;-90
2023/11/02 03:40:08;;;;;;;0.90;0.67;;;;;;;3.45;100.00;96490.00;6275717;28;20201;-90
2023/11/02 03:43:21;;;;;;;2.03;1.10;;;;;;;2.64;100.00;96372.97;6263829;28;20235;-91
2023/11/02 03:46:31;;;;;;;3.80;1.03;;;;;;;2.52;100.00;96356.38;6237766;28;20213;-91
2023/11/02 03:49:49;;;;;;;2.20;1.03;;;;;;;2.84;100.00;96388.47;6250211;28;20220;-89
2023/11/02 03:52:57;;;;;;;1.50;0.97;;;;;;;3.45;100.00;96481.28;6245587;28;20692;-89
2023/11/02 03:56:17;;;;;;;2.03;1.27;;;;;;;3.39;100.00;96479.56;6252035;28;20680;-89
2023/11/02 03:59:46;;;;;;;1.93;1.13;;;;;;;2.87;100.00;96405.66;6227886;28;20267;-90
2023/11/02 04:02:53;;;;;;;2.03;1.37;;;;;;;2.80;100.00;96388.13;6247140;28;20286;-89
2023/11/02 04:05:58;;;;;;;3.07;1.00;;;;;;;2.97;100.00;96424.31;6247634;28;20276;-89
2023/11/02 04:09:04;;;;;;;1.70;1.00;;;;;;;3.22;100.00;96453.09;6229903;28;20287;-89
2023/11/02 04:12:19;;;;;;;1.93;1.50;;;;;;;2.71;100.00;96371.06;6230417;28;20579;-89
2023/11/02 04:15:21;;;;;;;2.97;1.03;;;;;;;2.43;100.00;96290.19;6241174;28;20196;-89
2023/11/02 04:18:23;;;;;;;1.67;1.10;;;;;;;2.92;100.00;96364.50;6247110;28;20240;-89
2023/11/02 04:21:25;;;;;;;1.67;1.23;;;;;;;2.69;100.00;96310.00;6228431;28;20626;-89
2023/11/02 04:24:28;;;;;;;3.63;1.27;;;;;;;2.69;100.00;96322.34;6246982;28;20228;-89
2023/11/02 04:27:31;;;;;;;2.97;1.40;;;;;;;2.56;100.00;96300.50;6230175;28;20226;-90
2023/11/02 04:30:33;;;;;;;1.83;1.33;;;;;;;2.87;100.00;96324.91;6230375;28;20215;-89
2023/11/02 04:33:35;;;;;;;1.60;1.23;;;;;;;2.96;100.00;96359.59;6246843;28;20204;-89
2023/11/02 04:36:38;;;;;;;2.30;1.17;;;;;;;2.88;100.00;96323.88;6246886;28;20602;-88
2023/11/02 04:39:44;;;;;;;2.80;1.60;;;;;;;1.99;100.00;96191.59;6246353;28;20680;-88
2023/11/02 04:42:46;;;;;;;3.00;1.37;;;;;;;2.45;100.00;96261.03;6246039;28;20196;-89
2023/11/02 04:45:49;;;;;;;2.70;1.60;;;;;;;1.27;100.00;96129.34;6246357;28;20676;-89
2023/11/02 04:48:51;;;;;;;3.07;1.30;;;;;;;3.02;100.00;96377.91;6227492;28;20687;-89
2023/11/02 04:51:59;;;;;;;4.17;1.60;;;;;;;0.67;100.00;96040.13;6229710;28;20628;-89
2023/11/02 04:55:02;;;;;;;4.43;1.60;;;;;;;1.84;100.00;96191.19;6245596;28;20727;-89
2023/11/02 04:58:04;;;;;;;3.77;1.83;;;;;;;2.58;100.00;96308.16;6242941;28;20590;-89
2023/11/02 05:01:06;;;;;;;4.50;2.00;;;;;;;3.03;100.00;96362.91;6228769;28;20512;-89
2023/11/02 05:04:08;;;;;;;3.63;2.47;;;;;;;2.33;100.00;96253.94;6245500;28;20862;-88
2023/11/02 05:07:10;;;;;;;2.37;2.10;;;;;;;1.62;100.00;96117.38;6245279;28;20668;-89
2023/11/02 05:10:12;;;;;;;4.60;3.60;;;;;;;0.76;100.00;95978.53;6245699;28;20746;-89
2023/11/02 05:13:15;;;;;;;5.23;2.70;;;;;;;2.38;100.00;96236.69;6245066;28;20195;-89
2023/11/02 05:16:17;;;;;;;4.20;2.60;;;;;;;2.87;100.00;96313.59;6245513;28;20200;-88
2023/11/02 05:19:19;;;;;;;3.20;2.40;;;;;;;1.92;100.00;96164.59;6246542;28;20571;-89
2023/11/02 05:22:21;;;;;;;3.10;2.47;;;;;;;3.08;100.00;96313.03;6221577;28;20755;-88
2023/11/02 05:25:24;;;;;;;5.47;2.53;;;;;;;2.53;100.00;96202.91;6244289;28;20578;-88
2023/11/02 05:28:26;;;;;;;2.57;2.27;;;;;;;1.87;100.00;96109.34;6245189;28;20196;-88
2023/11/02 05:31:29;;;;;;;3.37;2.77;;;;;;;2.47;100.00;96188.84;6246013;28;20208;-89
2023/11/02 05:34:31;;;;;;;3.20;2.70;;;;;;;2.76;100.00;96241.56;6228138;28;20695;-89
2023/11/02 05:37:33;;;;;;;4.20;2.93;;;;;;;2.54;100.00;96199.22;6244977;28;20200;-89
2023/11/02 05:40:35;;;;;;;3.07;2.40;;;;;;;2.27;100.00;96146.31;6244857;28;20200;-88
2023/11/02 05:43:37;;;;;;;4.17;3.53;;;;;;;2.51;100.00;96195.25;6245904;28;20196;-88
2023/11/02 05:46:40;;;;;;;4.40;3.00;;;;;;;2.08;100.00;96105.41;6237430;28;20662;-88
2023/11/02 05:49:42;;;;;;;4.13;2.80;;;;;;;2.23;100.00;96150.41;6245107;28;20229;-88
2023/11/02 05:52:44;;;;;;;8.43;3.50;;;;;;;2.52;100.00;96198.66;6245150;28;20192;-89
2023/11/02 05:55:46;;;;;;;9.77;3.33;;;;;;;2.57;100.00;96190.91;6244443;28;20206;-89
2023/11/02 05:58:53;;;;;;;5.17;3.50;;;;;;;2.59;100.00;96187.00;6225980;28;20216;-89
2023/11/02 06:01:55;;;;;;;9.67;3.93;;;;;;;2.36;100.00;96141.50;6245137;28;20652;-90
2023/11/02 06:04:58;;;;;;;5.50;3.57;;;;;;;2.62;100.00;96184.97;6242089;28;20201;-90
2023/11/02 06:08:00;;;;;;;4.03;3.53;;;;;;;2.85;100.00;96224.38;6228862;28;20204;-90
2023/11/02 06:11:03;;;;;;;5.27;4.00;;;;;;;2.83;100.00;96187.81;6244760;28;20856;-90
2023/11/02 06:14:05;;;;;;;4.67;3.50;;;;;;;2.54;100.00;96120.38;6241764;28;20185;-90
2023/11/02 06:17:08;;;;;;;8.33;3.93;;;;;;;2.97;100.00;96193.63;6272916;28;20176;-90
2023/11/02 06:20:10;;;;;;;4.90;3.80;;;;;;;2.16;100.00;96058.56;6260337;28;20196;-91
2023/11/02 06:23:12;;;;;;;3.90;3.33;;;;;;;3.09;100.00;96199.69;6272986;28;20296;-90
2023/11/02 06:26:18;;;;;;;5.60;3.57;;;;;;;2.93;100.00;96186.44;6274230;28;20191;-90
2023/11/02 06:29:20;;;;;;;5.37;3.80;;;;;;;2.01;100.00;96029.31;6271643;28;20180;-91
2023/11/02 06:32:22;;;;;;;7.33;4.53;;;;;;;2.06;100.00;96048.63;6274489;28;20169;-90
2023/11/02 06:35:24;;;;;;;5.20;4.20;;;;;;;2.51;100.00;96121.66;6259645;28;20683;-91
2023/11/02 06:38:29;;;;;;;5.10;4.07;;;;;;;2.57;100.00;96140.97;6249994;28;20212;-90
2023/11/02 06:41:31;;;;;;;6.90;4.10;;;;;;;3.26;100.00;96244.53;6244338;28;20759;-90
2023/11/02 06:44:34;;;;;;;5.07;3.60;;;;;;;2.46;100.00;96113.63;6227253;28;20209;-91
2023/11/02 06:47:36;;;;;;;5.83;4.20;;;;;;;2.77;100.00;96167.69;6242729;28;20204;-89
2023/11/02 06:50:38;;;;;;;4.40;3.73;;;;;;;3.05;100.00;96213.53;6225709;28;20299;-88
2023/11/02 06:53:40;;;;;;;4.77;3.60;;;;;;;2.67;100.00;96135.94;6243576;28;21032;-89
2023/11/02 06:56:43;;;;;;;4.37;3.90;;;;;;;2.81;100.00;96131.22;6243226;28;20216;-89
2023/11/02 06:59:45;;;;;;;5.80;4.20;;;;;;;1.94;100.00;96005.03;6242937;28;20217;-89
2023/11/02 07:02:47;;;;;;;5.57;3.70;;;;;;;2.48;100.00;96056.38;6227344;28;20203;-90
2023/11/02 07:05:49;;;;;;;4.70;3.67;;;;;;;2.76;100.00;96087.22;6243506;28;20353;-88
2023/11/02 07:08:51;;;;;;;4.57;3.40;;;;;;;3.38;100.00;96170.00;6243114;28;20186;-90
2023/11/02 07:11:53;;;;;;;6.50;4.03;;;;;;;2.95;100.00;96111.50;6226791;28;20235;-91
2023/11/02 07:14:56;;;;;;;4.17;3.37;;;;;;;2.68;100.00;96058.66;6244138;28;20203;-90
2023/11/02 07:17:58;;;;;;;4.93;3.87;;;;;;;2.76;100.00;96066.19;6228372;28;20678;-90
2023/11/02 07:21:01;;;;;;;4.07;3.67;;;;;;;2.04;100.00;95942.22;6249306;28;20196;-90
2023/11/02 07:24:03;;;;;;;7.73;4.27;;;;;;;3.15;100.00;96095.34;6231724;28;20238;-90
2023/11/02 07:27:07;;;;;;;7.20;4.33;;;;;;;2.87;100.00;96069.81;6228642;28;20638;-90
2023/11/02 07:30:11;;;;;;;4.80;3.90;;;;;;;3.52;100.00;96131.84;6247830;28;20205;-90
2023/11/02 07:33:13;;;;;;;6.17;3.87;;;;;;;2.37;100.00;95949.47;6246826;28;20199;-91
2023/11/02 07:36:16;;;;;;;5.10;3.83;;;;;;;2.46;100.00;95928.88;6231925;28;20203;-90
2023/11/02 07:39:27;;;;;;;5.30;3.43;;;;;;;3.51;100.00;96085.50;6245913;28;20678;-90
2023/11/02 07:42:30;;;;;;;3.60;2.90;;;;;;;2.91;100.00;95936.81;6226654;28;20201;-91
2023/11/02 07:45:32;;;;;;;3.37;2.90;;;;;;;3.12;100.00;95966.91;6247397;28;20551;-90
2023/11/02 07:48:34;;;;;;;3.60;3.00;;;;;;;3.43;100.00;95988.47;6241059;28;20200;-91
2023/11/02 07:51:37;;;;;;;4.70;3.20;;;;;;;3.98;100.00;96064.94;6230808;28;20195;-90
2023/11/02 07:54:39;;;;;;;3.80;3.03;;;;;;;4.52;100.00;96103.97;6230975;28;20240;-90
2023/11/02 07:57:41;;;;;;;4.23;2.70;;;;;;;3.96;100.00;96008.28;6247345;28;20596;-91
2023/11/02 08:00:43;;;;;;;4.40;2.83;;;;;;;3.49;100.00;95905.91;6247798;28;20607;-89
2023/11/02 08:03:45;;;;;;;5.37;2.60;;;;;;;4.44;100.00;96028.75;6247569;28;20230;-89
2023/11/02 08:06:49;;;;;;;4.17;2.73;;;;;;;4.44;100.00;96002.38;6247013;28;20693;-89
2023/11/02 08:09:51;;;;;;;3.10;2.00;;;;;;;4.45;100.00;95979.44;6244200;28;20296;-90
2023/11/02 08:12:53;;;;;;;4.13;2.47;;;;;;;5.19;100.00;96061.56;6246956;28;20210;-90
2023/11/02 08:15:55;;;;;;;4.30;2.77;;;;;;;4.09;100.00;95857.78;6244013;28;20193;-90
2023/11/02 08:18:58;;;;;;;5.30;3.23;;;;;;;4.56;100.00;95881.75;6230285;28;20217;-90
2023/11/02 08:22:00;;;;;;;4.73;2.80;;;;;;;5.29;100.00;95921.75;6230553;28;20249;-90
2023/11/02 08:25:03;;;;;;;5.70;3.07;;;;;;;5.87;100.00;95970.28;6229922;28;20577;-89
2023/11/02 08:28:05;;;;;;;3.57;3.13;;;;;;;6.44;100.00;96029.63;6246863;28;20340;-88
2023/11/02 08:31:07;;;;;;;4.90;3.20;;;;;;;6.46;100.00;95996.59;6246998;28;20189;-88
2023/11/02 08:34:11;;;;;;;3.73;2.70;;;;;;;6.67;100.00;95972.88;6246497;28;20211;-89
2023/11/02 08:37:13;;;;;;;5.83;2.90;;;;;;;6.75;100.00;95932.69;6228927;28;20196;-88
2023/11/02 08:40:18;;;;;;;3.07;2.57;;;;;;;6.71;100.00;95897.22;6244086;28;20585;-88
2023/11/02 08:43:20;;;;;;;7.10;2.83;;;;;;;7.31;100.00;95953.97;6246475;28;20210;-89
2023/11/02 08:46:23;;;;;;;5.70;2.60;;;;;;;7.53;100.00;95985.50;6245990;28;20192;-89
2023/11/02 08:49:25;;;;;;;3.87;2.20;;;;;;;6.66;100.00;95834.50;6226596;28;20202;-89
2023/11/02 08:52:28;;;;;;;5.93;2.80;;;;;;;7.58;100.00;95913.97;6244691;28;20209;-92
2023/11/02 08:55:30;;;;;;;3.80;1.87;;;;;;;8.00;100.00;95939.41;6229088;28;20278;-84
2023/11/02 08:58:32;;;;;;;4.53;1.83;;;;;;;8.23;100.00;95932.72;6246913;28;20204;-83
2023/11/02 09:01:35;;;;;;;2.20;1.70;;;;;;;8.13;100.00;95887.66;6245278;28;20192;-84
2023/11/02 09:04:38;;;;;;;3.60;2.20;;;;;;;8.84;100.00;95961.72;6246451;28;20688;-84
2023/11/02 09:07:40;;;;;;;2.93;1.47;;;;;;;8.96;100.00;95932.97;6249780;28;20282;-84
2023/11/02 09:10:42;;;;;;;2.87;1.33;;;;;;;9.22;100.00;95911.56;6246260;28;20567;-86
2023/11/02 09:13:45;;;;;;;5.87;1.90;;;;;;;9.43;100.00;95899.72;6241063;28;20573;-85
2023/11/02 09:16:47;;;;;;;2.07;1.40;;;;;;;9.61;100.00;95853.06;6244581;28;20215;-85
2023/11/02 09:19:49;;;;;;;2.63;1.43;;;;;;;10.04;100.00;95880.53;6229135;28;20271;-85
2023/11/02 09:22:51;;;;;;;3.23;1.47;;;;;;;10.14;100.00;95889.50;6228827;28;20599;-85
2023/11/02 09:25:53;;;;;;;1.97;1.27;;;;;;;10.44;100.00;95902.50;6268584;28;20250;-85
2023/11/02 09:28:56;;;;;;;4.00;1.70;;;;;;;10.20;100.00;95851.13;6270000;28;20716;-86
2023/11/02 09:31:58;;;;;;;4.67;1.10;;;;;;;10.52;100.00;95866.47;6248665;28;20591;-87
2023/11/02 09:35:05;;;;;;;3.30;1.43;;;;;;;10.76;100.00;95885.06;6255466;28;20200;-86
2023/11/02 09:38:08;;;;;;;1.43;1.00;;;;;;;10.70;100.00;95846.28;6276366;28;20179;-85
2023/11/02 09:41:10;;;;;;;3.83;1.30;;;;;;;10.96;100.00;95862.69;6267229;28;20220;-86
2023/11/02 09:44:13;;;;;;;4.27;1.00;;;;;;;11.22;100.00;95898.53;6278064;28;20172;-87
2023/11/02 09:47:15;;;;;;;1.57;0.93;;;;;;;11.33;100.00;95897.31;6272272;28;20195;-85
2023/11/02 09:50:17;;;;;;;4.10;1.00;;;;;;;11.43;100.00;95899.03;6256950;28;20179;-86
2023/11/02 09:53:21;;;;;;;3.53;1.43;;;;;;;10.79;100.00;95772.63;6270638;28;20188;-85
2023/11/02 09:56:24;;;;;;;3.57;0.97;;;;;;;11.43;100.00;95863.56;6271235;28;20207;-86
2023/11/02 09:59:26;;;;;;;1.20;0.70;;;;;;;11.62;100.00;95851.78;6245373;28;20243;-86
2023/11/02 10:02:39;;;;;;;2.92;1.10;;;;;;;11.88;100.00;95844.16;6266199;28;20433;-54
2023/11/02 10:05:41;;;;;;;2.17;0.70;;;;;;;12.09;100.00;95825.88;6293278;28;20337;-56
2023/11/02 10:08:43;;;;;;;0.53;0.50;;;;;;;12.31;100.00;95829.69;6268388;28;20278;-53
2023/11/02 10:11:46;;;;;;;1.40;0.67;;;;;;;12.60;97.23;95829.38;6262255;28;20848;-53
2023/11/02 10:14:48;;;;;;;2.93;0.80;;;;;;;12.64;93.58;95831.16;6267817;28;20718;-53
2023/11/02 10:17:50;;;;;;;1.70;0.63;;;;;;;12.79;87.78;95827.34;6262347;28;20520;-52
2023/11/02 10:20:52;;;;;;;1.73;0.60;;;;;;;12.90;91.21;95814.56;6263320;28;20210;-54
2023/11/02 10:23:55;;;;;;;1.47;0.60;;;;;;;12.76;91.70;95803.09;6256610;28;20239;-53
2023/11/02 10:27:07;;;;;;;1.37;0.57;;;;;;;12.84;92.57;95799.72;6269592;28;20211;-55
2023/11/02 10:30:11;;;;;;;2.27;0.50;;;;;;;13.43;82.40;95798.59;6264401;28;20289;-54
2023/11/02 10:33:16;;;;;;;0.63;0.60;;;;;;;13.99;75.63;95790.19;6273710;28;20221;-55
2023/11/02 10:36:19;;;;;;;0.53;0.40;;;;;;;14.09;79.74;95777.34;6265345;28;20200;-54
2023/11/02 10:39:22;;;;;;;1.60;0.57;;;;;;;14.12;79.63;95778.59;6264347;28;20184;-52
2023/11/02 10:42:26;;;;;;;0.63;0.50;;;;;;;14.11;79.28;95796.56;6256679;28;20255;-52
2023/11/02 10:45:29;;;;;;;1.70;0.70;;;;;;;14.33;71.91;95747.44;6263683;28;20660;-54
2023/11/02 10:48:37;;;;;;;1.33;0.50;;;;;;;14.33;73.14;95765.41;6262595;28;20211;-54
2023/11/02 10:51:43;;;;;;;1.27;0.63;;;;;;;14.16;75.02;95772.31;6255126;28;20724;-56
2023/11/02 10:54:49;;;;;;;1.30;0.67;;;;;;;14.18;72.63;95748.69;6263622;28;20699;-54
2023/11/02 10:57:52;;;;;;;1.20;0.60;;;;;;;13.89;76.19;95706.44;6262592;28;20227;-56
2023/11/02 11:00:56;;;;;;;2.97;0.70;;;;;;;13.77;76.61;95722.28;6257410;28;20227;-55
2023/11/02 11:03:58;;;;;;;1.47;0.67;;;;;;;14.03;75.80;95741.09;6253075;28;20200;-55
2023/11/02 11:07:02;;;;;;;2.53;0.63;;;;;;;14.41;70.87;95738.66;6269367;28;20313;-56
2023/11/02 11:10:06;;;;;;;1.23;0.50;;;;;;;14.33;74.50;95728.69;6265978;28;20194;-53
2023/11/02 11:13:15;;;;;;;1.73;0.60;;;;;;;14.38;72.39;95725.91;6232324;28;20207;-56
2023/11/02 11:16:19;;;;;;;4.80;0.80;;;;;;;14.47;73.83;95731.25;6232159;28;20193;-54
2023/11/02 11:19:22;;;;;;;1.67;0.70;;;;;;;14.60;72.33;95730.34;6230706;28;20196;-56
2023/11/02 11:22:30;;;;;;;1.40;0.70;;;;;;;14.73;70.96;95719.75;6229564;28;20243;-56
2023/11/02 11:25:33;;;;;;;2.40;0.70;;;;;;;14.61;71.86;95707.00;6239951;28;20208;-54
2023/11/02 11:28:35;;;;;;;1.47;0.77;;;;;;;14.41;74.89;95713.75;6236992;28;20197;-55
2023/11/02 11:31:52;;;;;;;1.27;0.60;;;;;;;14.38;73.68;95696.44;6232295;28;20787;-53
2023/11/02 11:35:03;;;;;;;2.17;0.70;;;;;;;14.21;79.96;95712.47;6234845;28;20671;-54
2023/11/02 11:38:35;;;;;;;1.97;0.70;;;;;;;14.28;76.22;95709.31;6233234;28;20446;-56
2023/11/02 11:41:45;;;;;;;1.27;0.70;;;;;;;14.14;80.68;95714.84;6233906;28;20207;-56
2023/11/02 11:45:32;;;;;;;1.73;0.73;;;;;;;14.07;82.26;95698.41;6232184;28;20548;-56
2023/11/02 11:48:38;;;;;;;4.23;0.73;;;;;;;14.08;81.50;95684.72;6231239;28;20204;-55
2023/11/02 11:51:43;;;;;;;2.67;0.77;;;;;;;14.61;77.35;95678.31;6233286;28;20199;-53
2023/11/02 11:54:45;;;;;;;3.43;0.87;;;;;;;14.79;77.69;95670.28;6232512;28;20211;-54
2023/11/02 11:57:54;;;;;;;1.53;0.80;;;;;;;14.94;75.79;95661.72;6234320;28;20188;-55
2023/11/02 12:01:03;;;;;;;1.57;0.63;;;;;;;15.03;79.41;95645.63;6231285;28;20239;-55
2023/11/02 12:04:07;;;;;;;3.17;0.73;;;;;;;15.39;72.23;95645.16;6237211;28;20640;-56
2023/11/02 12:07:23;;;;;;;2.13;0.70;;;;;;;15.43;70.33;95663.00;6227913;28;20209;-52
2023/11/02 12:10:26;;;;;;;1.37;0.60;;;;;;;15.60;68.92;95639.84;6230363;28;20283;-54
2023/11/02 12:13:29;;;;;;;1.00;0.60;;;;;;;15.46;72.55;95658.88;6231992;28;20571;-55
2023/11/02 12:16:33;;;;;;;1.20;0.70;;;;;;;15.38;72.59;95646.28;6238185;28;20219;-56
2023/11/02 12:19:41;;;;;;;2.27;0.70;;;;;;;15.27;71.80;95639.69;6235399;28;20283;-55
2023/11/02 12:22:50;;;;;;;2.73;0.60;;;;;;;15.37;71.36;95625.91;6232239;28;20673;-53
2023/11/02 12:25:53;;;;;;;2.50;0.80;;;;;;;15.33;70.45;95633.06;6231266;28;20783;-57
2023/11/02 12:28:57;;;;;;;2.23;0.57;;;;;;;15.20;74.76;95640.19;6242999;28;20660;-53
2023/11/02 12:32:00;;;;;;;2.47;0.67;;;;;;;15.16;72.50;95623.94;6230646;28;20212;-55
2023/11/02 12:35:12;;;;;;;0.67;0.57;;;;;;;15.20;72.64;95613.38;6229232;28;20279;-54
2023/11/02 12:38:34;;;;;;;1.10;0.50;;;;;;;14.84;72.88;95570.91;6223929;28;20273;-55
2023/11/02 12:41:36;;;;;;;0.80;0.67;;;;;;;15.21;71.01;95617.63;6226638;28;20726;-54
2023/11/02 12:44:44;;;;;;;2.93;0.63;;;;;;;15.23;69.97;95585.91;6233424;28;20563;-55
2023/11/02 12:47:46;;;;;;;1.77;0.70;;;;;;;15.15;73.48;95618.91;6228558;28;20208;-55
2023/11/02 12:50:48;;;;;;;2.00;0.50;;;;;;;15.12;72.66;95601.59;6229711;28;20198;-54
2023/11/02 12:53:52;;;;;;;1.67;0.70;;;;;;;14.93;72.42;95569.78;6233965;28;20524;-53
2023/11/02 12:57:00;;;;;;;2.30;0.60;;;;;;;15.01;77.50;95596.88;6231625;28;20196;-53
2023/11/02 13:00:04;;;;;;;1.07;0.50;;;;;;;14.88;79.59;95585.25;6223734;28;20246;-51
2023/11/02 13:03:11;;;;;;;1.73;0.50;;;;;;;14.85;79.11;95584.00;6233751;28;20572;-53
2023/11/02 13:06:23;;;;;;;1.10;0.50;;;;;;;14.93;75.58;95585.09;6229958;28;20207;-54
2023/11/02 13:09:29;;;;;;;0.67;0.50;;;;;;;14.83;78.38;95583.53;6236409;28;20196;-56
2023/11/02 13:12:31;;;;;;;1.40;0.60;;;;;;;14.88;76.77;95586.03;6231661;28;20189;-55
2023/11/02 13:15:33;;;;;;;1.63;0.60;;;;;;;15.22;72.19;95584.31;6231317;28;20200;-55
2023/11/02 13:18:47;;;;;;;3.70;0.80;;;;;;;15.19;72.55;95591.13;6234542;28;20186;-55
2023/11/02 13:21:52;;;;;;;2.90;0.97;;;;;;;14.99;74.93;95558.88;6234732;28;20204;-53
2023/11/02 13:24:55;;;;;;;3.53;0.70;;;;;;;14.70;76.35;95523.66;6232517;28;20228;-53
2023/11/02 13:28:01;;;;;;;4.70;0.90;;;;;;;14.92;76.04;95564.72;6235546;28;20192;-55
2023/11/02 13:31:06;;;;;;;2.30;0.80;;;;;;;15.18;74.29;95565.41;6230025;28;20407;-54
2023/11/02 13:34:08;;;;;;;3.93;0.60;;;;;;;14.90;77.71;95567.72;6228470;28;20196;-55
2023/11/02 13:37:14;;;;;;;4.53;0.80;;;;;;;14.88;76.61;95553.88;6227523;28;20206;-55
2023/11/02 13:40:20;;;;;;;1.30;0.63;;;;;;;14.92;76.99;95575.44;6240609;28;20192;-55
2023/11/02 13:43:24;;;;;;;1.53;0.70;;;;;;;14.88;76.90;95559.25;6230106;28;20196;-57
2023/11/02 13:46:26;;;;;;;4.70;1.07;;;;;;;14.77;77.16;95574.06;6234766;28;20343;-56
2023/11/02 13:49:30;;;;;;;1.10;0.70;;;;;;;14.91;76.48;95574.66;6233390;28;20196;-53
2023/11/02 13:52:33;;;;;;;2.83;0.80;;;;;;;14.76;78.86;95567.16;6230579;28;20192;-57
2023/11/02 13:55:35;;;;;;;0.93;0.50;;;;;;;14.75;76.82;95573.63;6235483;28;20246;-54
2023/11/02 13:58:38;;;;;;;11.00;1.50;;;;;;;14.66;78.24;95564.81;6233354;28;20566;-55
2023/11/02 14:01:41;;;;;;;1.07;0.60;;;;;;;14.62;79.99;95596.03;6221914;28;20236;-55
2023/11/02 14:04:43;;;;;;;3.80;0.90;;;;;;;14.67;78.17;95574.41;6235191;28;20271;-55
2023/11/02 14:07:45;;;;;;;1.60;0.80;;;;;;;14.62;78.71;95574.59;6226468;28;20315;-55
2023/11/02 14:10:49;;;;;;;3.13;0.80;;;;;;;14.60;79.28;95568.78;6236600;28;20241;-54
2023/11/02 14:13:52;;;;;;;2.67;0.50;;;;;;;14.60;79.25;95571.44;6233315;28;20200;-51
2023/11/02 14:16:56;;;;;;;3.53;0.97;;;;;;;14.61;79.09;95565.75;6232256;28;20579;-51
2023/11/02 14:19:58;;;;;;;2.07;0.73;;;;;;;14.49;81.25;95557.63;6230659;28;20287;-51
2023/11/02 14:23:01;;;;;;;1.00;0.63;;;;;;;14.42;79.60;95551.91;6232439;28;20212;-53
2023/11/02 14:26:03;;;;;;;1.47;0.70;;;;;;;14.28;81.46;95551.28;6228542;28;20722;-50
2023/11/02 14:29:05;;;;;;;2.97;0.90;;;;;;;14.39;79.13;95539.16;6231758;28;20192;-53
2023/11/02 14:32:08;;;;;;;2.73;0.63;;;;;;;14.51;78.27;95543.88;6240560;28;20192;-52
2023/11/02 14:35:11;;;;;;;1.33;0.53;;;;;;;14.43;78.53;95548.13;6234887;28;20192;-49
2023/11/02 14:38:14;;;;;;;1.50;0.60;;;;;;;14.44;79.54;95544.34;6228733;28;20253;-51